Time;durP1;ratioP1;P1;durP2;ratioP2;P2;SDS_P1;SDS_P2;PMS_P1;PMS_P2;Temp;Humidity;BMP_temperature;BMP_pressure;BME280_temperature;BME280_humidity;BME280_pressure;Samples;Min_cycle;Max_cycle;Signal;HPM_P1;HPM_P2
2021/12/31 00:01:37;;;;;;;1.53;1.43;;;;;;;12.60;100.00;95977.72;5119028;28;20186;-61
2021/12/31 00:04:03;;;;;;;2.80;1.60;;;;;;;12.61;100.00;95978.50;5118909;28;20186;-68
2021/12/31 00:06:28;;;;;;;2.07;1.63;;;;;;;12.62;100.00;95977.31;5118831;28;20193;-62
2021/12/31 00:08:54;;;;;;;1.37;1.27;;;;;;;12.59;100.00;95970.69;5118859;28;20274;-62
2021/12/31 00:11:19;;;;;;;1.60;1.40;;;;;;;12.58;100.00;95971.88;5118739;28;20189;-63
2021/12/31 00:13:44;;;;;;;1.70;1.37;;;;;;;12.56;100.00;95970.69;5118533;28;20193;-62
2021/12/31 00:16:10;;;;;;;1.63;1.40;;;;;;;12.57;100.00;95966.78;5118743;28;20191;-62
2021/12/31 00:18:35;;;;;;;1.83;1.20;;;;;;;12.58;100.00;95966.38;5118923;28;20312;-62
2021/12/31 00:21:01;;;;;;;1.40;1.30;;;;;;;12.59;100.00;95975.38;5118436;28;20218;-62
2021/12/31 00:23:27;;;;;;;2.00;1.20;;;;;;;12.57;100.00;95966.78;5118625;28;20194;-58
2021/12/31 00:25:53;;;;;;;1.33;1.23;;;;;;;12.57;100.00;95983.22;5119015;28;20221;-58
2021/12/31 00:28:18;;;;;;;1.33;1.20;;;;;;;12.56;100.00;95967.94;5118746;28;20273;-59
2021/12/31 00:30:45;;;;;;;2.07;1.30;;;;;;;12.56;100.00;95976.16;5118668;28;20228;-58
2021/12/31 00:33:10;;;;;;;2.47;1.30;;;;;;;12.55;100.00;95980.09;5118354;28;20210;-58
2021/12/31 00:35:37;;;;;;;1.30;1.20;;;;;;;12.54;100.00;95978.53;5118521;28;20668;-58
2021/12/31 00:38:03;;;;;;;1.93;1.20;;;;;;;12.55;100.00;95980.09;5136755;28;20223;-58
2021/12/31 00:40:28;;;;;;;1.20;1.10;;;;;;;12.53;100.00;95966.78;5118583;28;20305;-61
2021/12/31 00:42:54;;;;;;;2.70;1.27;;;;;;;12.53;100.00;95977.00;5118644;28;20179;-63
2021/12/31 00:45:21;;;;;;;1.50;1.13;;;;;;;12.52;100.00;95980.88;5118807;28;20201;-63
2021/12/31 00:47:47;;;;;;;1.10;0.90;;;;;;;12.52;100.00;95978.94;5118963;28;20183;-62
2021/12/31 00:50:14;;;;;;;1.20;0.90;;;;;;;12.51;100.00;95973.84;5118861;28;20194;-63
2021/12/31 00:52:40;;;;;;;1.00;0.90;;;;;;;12.52;100.00;95981.69;5118071;28;20187;-62
2021/12/31 00:55:07;;;;;;;2.40;1.00;;;;;;;12.52;100.00;95989.09;5118529;28;20183;-63
2021/12/31 00:57:33;;;;;;;0.80;0.80;;;;;;;12.52;100.00;95975.41;5118134;28;20183;-58
2021/12/31 00:59:58;;;;;;;2.20;0.97;;;;;;;12.51;100.00;95976.59;5118086;28;20552;-54
2021/12/31 01:02:25;;;;;;;1.03;0.90;;;;;;;12.52;100.00;95975.41;5117186;28;20183;-58
2021/12/31 01:04:50;;;;;;;1.03;0.80;;;;;;;12.50;100.00;95983.25;5117868;28;20228;-58
2021/12/31 01:07:15;;;;;;;1.00;0.90;;;;;;;12.49;100.00;95976.22;5117910;28;20382;-58
2021/12/31 01:09:41;;;;;;;1.97;1.10;;;;;;;12.51;100.00;95980.13;5117959;28;20177;-58
2021/12/31 01:12:09;;;;;;;1.47;1.10;;;;;;;12.49;100.00;95982.47;5117947;28;20190;-58
2021/12/31 01:14:39;;;;;;;1.40;1.20;;;;;;;12.49;100.00;95978.94;5118416;28;20187;-58
2021/12/31 01:17:08;;;;;;;2.20;1.30;;;;;;;12.47;100.00;95984.84;5118163;28;20225;-68
2021/12/31 01:19:45;;;;;;;1.80;1.37;;;;;;;12.46;100.00;95991.50;5118208;28;20203;-54
2021/12/31 01:22:19;;;;;;;2.37;1.40;;;;;;;12.45;100.00;95994.63;5117686;28;20226;-54
2021/12/31 01:24:46;;;;;;;3.23;1.20;;;;;;;12.44;100.00;95996.59;5118159;28;20270;-53
2021/12/31 01:27:13;;;;;;;2.00;1.20;;;;;;;12.44;100.00;95990.34;5118049;28;20180;-54
2021/12/31 01:29:38;;;;;;;2.63;1.43;;;;;;;12.44;100.00;95993.88;5117822;28;20240;-55
2021/12/31 01:32:04;;;;;;;1.67;1.27;;;;;;;12.44;100.00;95991.13;5117363;27;20183;-54
2021/12/31 01:34:30;;;;;;;1.67;1.30;;;;;;;12.44;100.00;95990.34;5117747;28;20221;-58
2021/12/31 01:36:56;;;;;;;1.40;1.10;;;;;;;12.45;100.00;95991.88;5117666;28;20271;-58
2021/12/31 01:39:21;;;;;;;1.30;1.20;;;;;;;12.44;100.00;95990.34;5117451;28;20245;-63
2021/12/31 01:41:46;;;;;;;0.90;0.90;;;;;;;12.44;100.00;95991.13;5118025;28;20183;-62
2021/12/31 01:44:12;;;;;;;1.50;1.10;;;;;;;12.41;100.00;95986.44;5117586;28;20183;-62
2021/12/31 01:46:54;;;;;;;1.73;1.00;;;;;;;12.41;100.00;95986.44;5117420;28;20262;-62
2021/12/31 01:49:22;;;;;;;0.97;0.90;;;;;;;12.40;100.00;95995.06;5117747;28;20196;-62
2021/12/31 01:51:47;;;;;;;1.13;1.00;;;;;;;12.40;100.00;95992.31;5117920;28;20326;-62
2021/12/31 01:54:13;;;;;;;1.17;1.07;;;;;;;12.37;100.00;95990.38;5117309;28;20228;-62
2021/12/31 01:56:39;;;;;;;1.10;0.93;;;;;;;12.36;100.00;95983.34;5117641;28;20196;-60
2021/12/31 01:59:07;;;;;;;0.90;0.90;;;;;;;12.35;100.00;95992.75;5117073;28;20186;-61
2021/12/31 02:01:33;;;;;;;1.30;1.00;;;;;;;12.35;100.00;95992.75;5117453;28;20272;-61
2021/12/31 02:03:59;;;;;;;1.20;1.10;;;;;;;12.34;100.00;95986.47;5117314;28;20185;-62
2021/12/31 02:06:26;;;;;;;1227.37;699.40;;;;;;;12.36;100.00;95994.28;5117011;28;20187;-61
2021/12/31 02:08:52;;;;;;;37.13;21.43;;;;;;;12.34;100.00;95978.25;5117555;28;20185;-61
2021/12/31 02:11:18;;;;;;;4.87;2.40;;;;;;;12.32;100.00;95986.09;5117306;28;20297;-69
2021/12/31 02:13:43;;;;;;;1.80;1.00;;;;;;;12.33;100.00;95992.34;5116764;27;20191;-62
2021/12/31 02:16:09;;;;;;;1.10;1.00;;;;;;;12.31;100.00;95981.03;5116724;28;20177;-61
2021/12/31 02:18:35;;;;;;;1.30;1.10;;;;;;;12.31;100.00;95984.53;5116948;28;20187;-61
2021/12/31 02:21:02;;;;;;;0.73;0.73;;;;;;;12.31;100.00;95989.25;5116803;28;20241;-61
2021/12/31 02:23:37;;;;;;;1.20;0.80;;;;;;;12.30;100.00;95993.94;5116947;28;20192;-61
2021/12/31 02:26:03;;;;;;;1.10;1.00;;;;;;;12.27;100.00;95992.00;5117209;28;20242;-61
2021/12/31 02:28:28;;;;;;;0.90;0.90;;;;;;;12.27;100.00;95996.69;5117093;28;20193;-61
2021/12/31 02:31:00;;;;;;;1.00;0.90;;;;;;;12.26;100.00;96011.56;5116816;28;20268;-61
2021/12/31 02:33:25;;;;;;;1.17;0.93;;;;;;;12.24;100.00;95992.03;5117239;28;20218;-54
2021/12/31 02:35:51;;;;;;;1.50;1.03;;;;;;;12.24;100.00;95997.50;5116444;28;20189;-53
2021/12/31 02:38:16;;;;;;;3.37;2.63;;;;;;;12.23;100.00;95995.91;5116665;28;20350;-53
2021/12/31 02:40:41;;;;;;;2.40;2.20;;;;;;;12.20;100.00;95996.75;5116351;28;20217;-54
2021/12/31 02:43:07;;;;;;;3.07;2.30;;;;;;;12.18;100.00;95993.59;5116502;28;20277;-52
2021/12/31 02:45:34;;;;;;;2.50;1.80;;;;;;;12.17;100.00;95997.53;5116636;28;20185;-54
2021/12/31 02:48:02;;;;;;;3.50;1.90;;;;;;;12.14;100.00;95992.84;5117188;28;20197;-58
2021/12/31 02:50:35;;;;;;;2.90;1.70;;;;;;;12.14;100.00;95992.84;5134531;28;20186;-68
2021/12/31 02:53:09;;;;;;;2.73;1.97;;;;;;;12.11;100.00;95991.69;5116764;28;20185;-68
2021/12/31 02:55:36;;;;;;;3.73;2.90;;;;;;;12.11;100.00;95991.69;5134618;28;20181;-68
2021/12/31 02:58:03;;;;;;;1.77;1.60;;;;;;;12.08;100.00;95988.94;5115982;28;20266;-68
2021/12/31 03:00:30;;;;;;;1.90;1.70;;;;;;;12.06;100.00;95985.84;5116735;28;20210;-68
2021/12/31 03:03:00;;;;;;;1.10;1.00;;;;;;;12.04;100.00;95990.94;5116586;28;20186;-69
2021/12/31 03:05:28;;;;;;;3.20;2.67;;;;;;;12.02;100.00;95979.59;5116783;28;20194;-68
2021/12/31 03:07:56;;;;;;;1.57;1.47;;;;;;;12.00;100.00;95977.28;5116259;28;20187;-63
2021/12/31 03:10:23;;;;;;;1.20;1.10;;;;;;;11.99;100.00;95974.94;5115988;28;20283;-68
2021/12/31 03:12:51;;;;;;;1.00;1.00;;;;;;;11.97;100.00;95977.25;5116332;28;20229;-68
2021/12/31 03:15:17;;;;;;;1.47;1.03;;;;;;;11.94;100.00;95975.31;5116160;28;20277;-68
2021/12/31 03:17:43;;;;;;;1.20;1.10;;;;;;;11.91;100.00;95962.44;5116206;28;20217;-68
2021/12/31 03:20:12;;;;;;;1.10;1.00;;;;;;;11.91;100.00;95962.44;5134072;28;20199;-68
2021/12/31 03:22:39;;;;;;;1.10;1.00;;;;;;;11.88;100.00;95974.19;5116392;28;20221;-68
2021/12/31 03:25:08;;;;;;;1.27;1.17;;;;;;;11.87;100.00;95967.91;5115970;27;20184;-68
2021/12/31 03:27:33;;;;;;;1.40;1.20;;;;;;;11.85;100.00;95970.28;5118860;28;20188;-61
2021/12/31 03:29:59;;;;;;;1.47;1.20;;;;;;;11.84;100.00;95963.25;5119615;28;20185;-61
2021/12/31 03:32:24;;;;;;;1.13;1.00;;;;;;;11.82;100.00;95970.28;5120016;28;20212;-61
2021/12/31 03:34:49;;;;;;;1.73;1.30;;;;;;;11.82;100.00;95965.59;5119824;28;20184;-61
2021/12/31 03:37:15;;;;;;;1.83;1.17;;;;;;;11.82;100.00;95960.13;5119363;28;20183;-61
2021/12/31 03:39:40;;;;;;;1.10;1.03;;;;;;;11.81;100.00;95952.31;5119810;28;20238;-61
2021/12/31 03:42:05;;;;;;;1.60;1.20;;;;;;;11.79;100.00;95949.19;5119307;28;20191;-61
2021/12/31 03:44:31;;;;;;;2.93;1.33;;;;;;;11.78;100.00;95953.09;5119621;28;20264;-58
2021/12/31 03:46:56;;;;;;;1.20;1.10;;;;;;;11.77;100.00;95946.09;5119437;28;20226;-59
2021/12/31 03:49:21;;;;;;;1.33;1.23;;;;;;;11.77;100.00;95951.56;5119531;28;20186;-58
2021/12/31 03:51:47;;;;;;;1.30;1.20;;;;;;;11.75;100.00;95948.41;5119807;28;20226;-58
2021/12/31 03:54:12;;;;;;;1.47;1.37;;;;;;;11.73;100.00;95945.31;5119535;28;20187;-58
2021/12/31 03:56:37;;;;;;;1.20;1.10;;;;;;;11.71;100.00;95944.91;5119217;28;20230;-58
2021/12/31 03:59:03;;;;;;;1.27;1.17;;;;;;;11.71;100.00;95947.66;5119075;28;20192;-58
2021/12/31 04:01:28;;;;;;;1.10;1.00;;;;;;;11.67;100.00;95947.69;5119121;28;20179;-62
2021/12/31 04:03:54;;;;;;;1.20;1.10;;;;;;;11.65;100.00;95943.78;5118875;28;20192;-59
2021/12/31 04:06:21;;;;;;;1.13;1.07;;;;;;;11.63;100.00;95946.13;5119094;28;20181;-58
2021/12/31 04:08:47;;;;;;;1.57;1.20;;;;;;;11.63;100.00;95938.72;5119030;28;20180;-58
2021/12/31 04:11:13;;;;;;;1.60;1.30;;;;;;;11.62;100.00;95939.09;5118911;28;20273;-58
2021/12/31 04:13:39;;;;;;;1.20;1.10;;;;;;;11.60;100.00;95930.47;5119188;28;20219;-58
2021/12/31 04:16:05;;;;;;;1.37;1.27;;;;;;;11.58;100.00;95938.31;5118757;28;20198;-58
2021/12/31 04:18:30;;;;;;;2.40;1.20;;;;;;;11.56;100.00;95930.50;5119187;28;20627;-58
2021/12/31 04:20:57;;;;;;;1.30;1.00;;;;;;;11.55;100.00;95933.63;5118682;28;20198;-63
2021/12/31 04:23:31;;;;;;;1.33;1.23;;;;;;;11.57;100.00;95934.78;5118871;28;20194;-62
2021/12/31 04:25:58;;;;;;;1.20;1.03;;;;;;;11.54;100.00;95930.09;5119195;28;20178;-62
2021/12/31 04:28:25;;;;;;;1.10;1.00;;;;;;;11.52;100.00;95924.25;5118420;28;20190;-62
2021/12/31 04:30:51;;;;;;;1.33;1.20;;;;;;;11.52;100.00;95937.16;5119171;28;20184;-62
2021/12/31 04:33:16;;;;;;;1.43;1.20;;;;;;;11.52;100.00;95923.47;5118445;28;20217;-63
2021/12/31 04:35:41;;;;;;;1.30;1.20;;;;;;;11.50;100.00;95923.06;5118901;28;20219;-62
2021/12/31 04:38:07;;;;;;;1.73;1.30;;;;;;;11.47;100.00;95926.63;5118784;28;20245;-60
2021/12/31 04:40:33;;;;;;;1.40;1.20;;;;;;;11.48;100.00;95922.72;5118876;28;20207;-62
2021/12/31 04:42:58;;;;;;;1.20;1.10;;;;;;;11.45;100.00;95918.81;5118380;28;20184;-58
2021/12/31 04:45:25;;;;;;;1.50;1.30;;;;;;;11.44;100.00;95913.75;5118418;28;20184;-58
2021/12/31 04:47:51;;;;;;;1.00;1.00;;;;;;;11.41;100.00;95920.00;5118705;28;20179;-58
2021/12/31 04:50:16;;;;;;;1.63;1.20;;;;;;;11.38;100.00;95912.56;5118263;28;20220;-58
2021/12/31 04:52:41;;;;;;;1.37;1.27;;;;;;;11.38;100.00;95918.03;5118547;28;20227;-58
2021/12/31 04:55:07;;;;;;;1.20;1.10;;;;;;;11.38;100.00;95912.56;5118135;28;20185;-58
2021/12/31 04:57:33;;;;;;;1.53;1.30;;;;;;;11.37;100.00;95917.25;5118171;28;20221;-58
2021/12/31 04:59:58;;;;;;;1.17;1.07;;;;;;;11.35;100.00;95916.09;5117897;28;20200;-58
2021/12/31 05:02:23;;;;;;;2.80;1.53;;;;;;;11.32;100.00;95914.13;5119030;28;20184;-58
2021/12/31 05:04:49;;;;;;;1.40;1.30;;;;;;;11.26;100.00;95921.19;5118250;28;20190;-58
2021/12/31 05:07:14;;;;;;;1.20;1.10;;;;;;;11.17;100.00;95918.88;5117874;28;20199;-58
2021/12/31 05:09:40;;;;;;;2.23;1.20;;;;;;;11.09;100.00;95917.34;5117950;28;20207;-58
2021/12/31 05:12:06;;;;;;;1.90;1.30;;;;;;;11.01;100.00;95920.47;5118226;28;20195;-58
2021/12/31 05:14:32;;;;;;;1.30;1.20;;;;;;;10.92;100.00;95920.09;5117876;28;20184;-58
2021/12/31 05:16:58;;;;;;;1.80;1.30;;;;;;;10.85;100.00;95911.91;5118111;28;20191;-62
2021/12/31 05:19:25;;;;;;;1.67;1.37;;;;;;;10.79;100.00;95918.94;5117997;28;20253;-59
2021/12/31 05:21:51;;;;;;;1.50;1.30;;;;;;;10.71;100.00;95920.09;5118009;28;20279;-58
2021/12/31 05:24:16;;;;;;;1.60;1.33;;;;;;;10.65;100.00;95918.94;5117631;28;20637;-58
2021/12/31 05:26:43;;;;;;;1.50;1.40;;;;;;;10.56;100.00;95918.53;5117455;28;20180;-59
2021/12/31 05:29:27;;;;;;;1.97;1.20;;;;;;;10.50;100.00;95909.97;5117807;28;20194;-58
2021/12/31 05:31:52;;;;;;;1.30;1.20;;;;;;;10.43;100.00;95917.34;5118315;28;20191;-58
2021/12/31 05:34:18;;;;;;;1.60;1.33;;;;;;;10.36;100.00;95912.69;5117415;28;20271;-49
2021/12/31 05:36:44;;;;;;;1.40;1.30;;;;;;;10.30;100.00;95914.22;5117547;28;20175;-63
2021/12/31 05:39:10;;;;;;;1.33;1.23;;;;;;;10.28;100.00;95910.31;5117685;28;20191;-62
2021/12/31 05:41:36;;;;;;;1.33;1.23;;;;;;;10.26;100.00;95913.44;5117393;28;20171;-62
2021/12/31 05:44:01;;;;;;;1.40;1.30;;;;;;;10.28;100.00;95907.59;5117526;28;20261;-62
2021/12/31 05:46:26;;;;;;;1.40;1.30;;;;;;;10.28;100.00;95904.88;5117605;28;20242;-62
2021/12/31 05:48:52;;;;;;;1.50;1.40;;;;;;;10.30;100.00;95903.31;5117076;28;20227;-62
2021/12/31 05:51:18;;;;;;;1.20;1.10;;;;;;;10.30;100.00;95910.72;5117537;28;20191;-62
2021/12/31 05:53:43;;;;;;;1.40;1.30;;;;;;;10.29;100.00;95911.88;5117797;28;20190;-63
2021/12/31 05:56:09;;;;;;;1.47;1.30;;;;;;;10.25;100.00;95905.63;5117700;28;20183;-58
2021/12/31 05:58:34;;;;;;;1.47;1.20;;;;;;;10.24;100.00;95909.53;5117231;28;20187;-58
2021/12/31 06:01:00;;;;;;;1.40;1.30;;;;;;;10.23;100.00;95902.53;5116889;28;20203;-58
2021/12/31 06:03:25;;;;;;;2.67;1.43;;;;;;;10.22;100.00;95901.75;5117137;28;20176;-59
2021/12/31 06:05:50;;;;;;;3.77;2.03;;;;;;;10.24;100.00;95904.09;5117056;28;20286;-58
2021/12/31 06:08:16;;;;;;;3.27;1.50;;;;;;;10.27;100.00;95900.59;5117615;28;20218;-58
2021/12/31 06:10:41;;;;;;;3.17;1.60;;;;;;;10.30;100.00;95902.53;5117434;28;20196;-69
2021/12/31 06:13:07;;;;;;;1.83;1.60;;;;;;;10.32;100.00;95900.19;5117031;28;20183;-63
2021/12/31 06:15:33;;;;;;;1.10;1.00;;;;;;;10.36;100.00;95909.16;5135376;28;20195;-58
2021/12/31 06:17:59;;;;;;;1.30;1.20;;;;;;;10.36;100.00;95907.22;5116883;28;20186;-58
2021/12/31 06:20:28;;;;;;;1.07;1.03;;;;;;;10.38;100.00;95904.09;5117039;28;20210;-56
2021/12/31 06:22:54;;;;;;;2.73;1.40;;;;;;;10.39;100.00;95911.91;5117429;28;20192;-58
2021/12/31 06:25:19;;;;;;;1.27;1.13;;;;;;;10.39;100.00;95911.91;5117065;28;20187;-58
2021/12/31 06:27:44;;;;;;;1.30;1.13;;;;;;;10.39;100.00;95916.56;5117302;28;20190;-59
2021/12/31 06:30:10;;;;;;;1.30;1.20;;;;;;;10.36;100.00;95923.59;5116731;28;20185;-67
2021/12/31 06:32:36;;;;;;;1.50;1.20;;;;;;;10.36;100.00;95917.34;5116582;28;20210;-71
2021/12/31 06:35:01;;;;;;;1.30;1.20;;;;;;;10.36;100.00;95917.34;5116560;28;20247;-75
2021/12/31 06:37:27;;;;;;;2.10;1.10;;;;;;;10.37;100.00;95918.94;5116550;28;20180;-71
2021/12/31 06:39:53;;;;;;;1.77;1.47;;;;;;;10.36;100.00;95922.81;5116842;28;20212;-70
2021/12/31 06:42:19;;;;;;;1.40;1.30;;;;;;;10.37;100.00;95925.16;5116606;28;20183;-69
2021/12/31 06:44:44;;;;;;;2.30;2.10;;;;;;;10.37;100.00;95924.38;5116867;28;20248;-70
2021/12/31 06:47:09;;;;;;;1.87;1.50;;;;;;;10.37;100.00;95929.84;5116422;28;20202;-55
2021/12/31 06:49:35;;;;;;;1.80;1.33;;;;;;;10.39;100.00;95930.22;5116486;28;20187;-68
2021/12/31 06:52:00;;;;;;;1.60;1.50;;;;;;;10.39;100.00;95943.88;5116184;28;20254;-58
2021/12/31 06:54:25;;;;;;;2.23;1.80;;;;;;;10.42;100.00;95948.56;5116822;28;20183;-59
2021/12/31 06:56:51;;;;;;;1.60;1.50;;;;;;;10.42;100.00;95940.38;5116350;28;20187;-58
2021/12/31 06:59:16;;;;;;;1.43;1.33;;;;;;;10.44;100.00;95940.75;5116280;28;20179;-58
2021/12/31 07:01:42;;;;;;;2.00;1.20;;;;;;;10.42;100.00;95937.66;5117615;28;20179;-58
2021/12/31 07:04:07;;;;;;;2.57;1.30;;;;;;;10.41;100.00;95936.09;5120719;28;20175;-56
2021/12/31 07:06:32;;;;;;;1.40;1.20;;;;;;;10.39;100.00;95932.97;5119679;28;20580;-70
2021/12/31 07:08:58;;;;;;;2.03;1.67;;;;;;;10.37;100.00;95932.56;5120001;28;20198;-67
2021/12/31 07:11:23;;;;;;;2.47;1.53;;;;;;;10.40;100.00;95932.56;5120187;28;20179;-70
2021/12/31 07:13:50;;;;;;;1.27;1.17;;;;;;;10.67;100.00;95930.25;5119810;28;20171;-68
2021/12/31 07:16:15;;;;;;;1.50;1.40;;;;;;;10.99;100.00;95928.25;5119646;28;20278;-71
2021/12/31 07:18:40;;;;;;;1.73;1.33;;;;;;;11.19;100.00;95927.47;5119635;28;20239;-71
2021/12/31 07:21:06;;;;;;;2.80;2.33;;;;;;;11.51;100.00;95932.84;5119579;28;20318;-71
2021/12/31 07:23:31;;;;;;;2.77;2.43;;;;;;;11.80;100.00;95937.84;5119655;28;20183;-71
2021/12/31 07:25:56;;;;;;;3.80;2.57;;;;;;;12.21;100.00;95938.06;5119323;28;20230;-59
2021/12/31 07:28:22;;;;;;;3.43;2.10;;;;;;;12.65;100.00;95943.63;5119456;28;20189;-56
2021/12/31 07:30:47;;;;;;;2.53;1.80;;;;;;;13.14;100.00;95957.75;5119461;28;20188;-55
2021/12/31 07:33:15;;;;;;;2.53;1.50;;;;;;;13.42;100.00;95956.69;5119529;28;20259;-55
2021/12/31 07:35:40;;;;;;;1.67;1.40;;;;;;;13.64;100.00;95960.78;5119472;28;20243;-55
2021/12/31 07:38:06;;;;;;;2.90;1.43;;;;;;;13.97;100.00;95953.72;5119732;28;20198;-53
2021/12/31 07:40:39;;;;;;;1.33;1.23;;;;;;;14.13;100.00;95962.91;5137522;28;20201;-54
2021/12/31 07:43:09;;;;;;;2.00;1.47;;;;;;;14.37;100.00;95967.34;5119608;28;20240;-69
2021/12/31 07:45:35;;;;;;;5.57;4.53;;;;;;;14.47;100.00;95960.94;5119572;28;20204;-58
2021/12/31 07:48:01;;;;;;;1.47;1.37;;;;;;;14.70;100.00;95963.75;5119473;28;20256;-56
2021/12/31 07:50:27;;;;;;;2.07;1.53;;;;;;;15.04;100.00;95967.13;5119189;28;20282;-59
2021/12/31 07:52:52;;;;;;;1.57;1.47;;;;;;;15.03;100.00;95968.34;5118938;28;20219;-59
2021/12/31 07:55:18;;;;;;;2.13;1.83;;;;;;;15.25;100.00;95964.03;5119628;28;20540;-58
2021/12/31 07:57:43;;;;;;;1.40;1.30;;;;;;;15.37;100.00;95966.22;5119155;28;20183;-58
2021/12/31 08:00:09;;;;;;;1.77;1.20;;;;;;;15.56;100.00;95968.22;5119376;28;20250;-59
2021/12/31 08:02:34;;;;;;;2.23;1.70;;;;;;;15.69;100.00;95974.69;5118753;28;20250;-57
2021/12/31 08:04:59;;;;;;;1.73;1.43;;;;;;;15.79;100.00;95973.72;5118924;28;20179;-64
2021/12/31 08:07:25;;;;;;;1.40;1.20;;;;;;;15.63;100.00;95981.09;5118733;28;20246;-65
2021/12/31 08:09:50;;;;;;;1.60;1.50;;;;;;;15.61;100.00;95984.28;5118787;28;20179;-63
2021/12/31 08:12:16;;;;;;;2.50;1.60;;;;;;;15.71;100.00;95994.31;5118309;28;20232;-63
2021/12/31 08:14:41;;;;;;;1.90;1.67;;;;;;;15.85;100.00;95999.53;5119484;28;20190;-63
2021/12/31 08:17:06;;;;;;;1.50;1.40;;;;;;;16.11;100.00;95995.88;5118979;28;20186;-64
2021/12/31 08:19:31;;;;;;;2.83;1.93;;;;;;;16.14;100.00;96002.56;5118555;28;20310;-62
2021/12/31 08:21:57;;;;;;;1.00;1.00;;;;;;;16.19;100.00;95997.31;5118412;28;20274;-59
2021/12/31 08:24:22;;;;;;;2.00;1.70;;;;;;;16.39;100.00;96006.34;5118724;28;20179;-63
2021/12/31 08:26:47;;;;;;;2.63;1.60;;;;;;;16.57;100.00;96005.25;5119261;28;20557;-68
2021/12/31 08:29:13;;;;;;;2.20;1.67;;;;;;;16.40;100.00;95996.09;5118433;28;20187;-65
2021/12/31 08:31:40;;;;;;;1.67;1.40;;;;;;;16.50;100.00;96006.16;5118523;28;20278;-63
2021/12/31 08:34:10;;;;;;;2.60;1.60;;;;;;;16.84;100.00;95997.53;5118912;28;20270;-66
2021/12/31 08:36:35;;;;;;;2.07;1.87;;;;;;;17.19;100.00;95999.47;5118735;28;20183;-65
2021/12/31 08:39:03;;;;;;;2.30;2.07;;;;;;;17.36;100.00;96006.53;5136572;28;20193;-68
2021/12/31 08:41:28;;;;;;;1.57;1.40;;;;;;;17.71;100.00;96005.69;5118308;28;20213;-58
2021/12/31 08:43:53;;;;;;;3.20;1.50;;;;;;;18.05;100.00;96009.50;5118270;28;20277;-58
2021/12/31 08:46:19;;;;;;;1.50;1.40;;;;;;;18.48;100.00;95995.28;5118103;28;20183;-59
2021/12/31 08:48:44;;;;;;;1.77;1.10;;;;;;;18.56;100.00;95999.41;5118175;28;20202;-58
2021/12/31 08:51:09;;;;;;;3.50;1.40;;;;;;;18.55;100.00;95997.84;5118397;28;20546;-58
2021/12/31 08:53:35;;;;;;;2.40;2.00;;;;;;;17.97;100.00;95996.31;5118263;28;20194;-59
2021/12/31 08:56:00;;;;;;;2.90;1.63;;;;;;;17.85;100.00;95994.28;5117836;28;20186;-69
2021/12/31 08:58:25;;;;;;;2.10;1.60;;;;;;;17.90;100.00;95996.50;5118182;28;20191;-69
2021/12/31 09:00:51;;;;;;;1.87;1.50;;;;;;;18.12;100.00;95994.69;5118391;28;20289;-73
2021/12/31 09:03:16;;;;;;;2.10;1.90;;;;;;;18.42;100.00;95991.50;5118046;28;20187;-69
2021/12/31 09:05:41;;;;;;;1.80;1.40;;;;;;;19.00;100.00;95990.13;5117969;28;20227;-69
2021/12/31 09:08:07;;;;;;;2.33;1.50;;;;;;;18.90;100.00;95975.41;5118339;28;20187;-69
2021/12/31 09:10:33;;;;;;;2.43;1.53;;;;;;;19.53;100.00;95978.16;5117776;28;20191;-68
2021/12/31 09:13:00;;;;;;;1.60;1.40;;;;;;;19.70;100.00;95976.78;5118285;28;20378;-73
2021/12/31 09:15:25;;;;;;;2.13;1.50;;;;;;;20.07;100.00;95964.00;5118101;28;20635;-65
2021/12/31 09:17:50;;;;;;;1.33;1.20;;;;;;;19.73;100.00;95959.25;5117766;28;20210;-71
2021/12/31 09:20:16;;;;;;;2.33;1.40;;;;;;;19.12;100.00;95969.97;5118295;28;20235;-70
2021/12/31 09:22:42;;;;;;;1.70;1.30;;;;;;;19.37;100.00;95969.97;5118015;28;20198;-69
2021/12/31 09:25:07;;;;;;;1.90;1.73;;;;;;;18.77;100.00;95976.63;5116364;28;20187;-70
2021/12/31 09:27:33;;;;;;;3.23;1.70;;;;;;;18.79;100.00;95979.72;5118125;28;20180;-70
2021/12/31 09:29:58;;;;;;;2.53;1.53;;;;;;;18.27;100.00;95987.56;5118108;28;20191;-70
2021/12/31 09:32:23;;;;;;;3.57;2.90;;;;;;;18.27;100.00;95987.56;5117217;27;20211;-69
2021/12/31 09:34:49;;;;;;;3.10;1.97;;;;;;;18.87;100.00;95986.59;5117518;28;20183;-68
2021/12/31 09:37:15;;;;;;;1.60;1.50;;;;;;;19.33;100.00;95974.84;5117170;28;20270;-59
2021/12/31 09:39:41;;;;;;;1.50;1.40;;;;;;;19.60;100.00;95977.13;5117449;28;20203;-59
2021/12/31 09:42:07;;;;;;;3.67;1.83;;;;;;;19.88;100.00;95971.38;5116986;28;20210;-60
2021/12/31 09:44:34;;;;;;;2.30;2.10;;;;;;;20.09;100.00;95981.75;5117257;28;20183;-59
2021/12/31 09:47:07;;;;;;;3.90;3.27;;;;;;;20.22;100.00;95973.41;5117751;28;20191;-60
2021/12/31 09:49:33;;;;;;;1.87;1.70;;;;;;;20.25;100.00;95970.47;5117477;28;20651;-58
2021/12/31 09:51:59;;;;;;;5.17;1.90;;;;;;;20.06;100.00;95979.09;5117191;28;20214;-67
2021/12/31 09:54:24;;;;;;;2.77;1.67;;;;;;;20.12;100.00;95982.88;5117352;28;20244;-65
2021/12/31 09:56:49;;;;;;;4.80;2.20;;;;;;;20.02;100.00;95979.22;5117618;28;20254;-64
2021/12/31 09:59:15;;;;;;;3.43;1.57;;;;;;;20.05;100.00;95981.09;5117482;28;20185;-70
2021/12/31 10:01:48;;;;;;;2.27;1.47;;;;;;;20.22;100.00;95974.19;5117138;28;20179;-74
2021/12/31 10:04:13;;;;;;;3.63;3.23;;;;;;;20.24;100.00;95976.47;5116942;28;20659;-67
2021/12/31 10:07:10;;;;;;;4.57;4.13;;;;;;;20.04;100.00;95979.56;5116868;28;20175;-66
2021/12/31 10:09:39;;;;;;;3.63;1.70;;;;;;;20.08;100.00;95974.66;5116946;28;20228;-60
2021/12/31 10:12:05;;;;;;;4.00;2.10;;;;;;;20.10;100.00;95977.75;5116889;28;20180;-65
2021/12/31 10:14:36;;;;;;;3.83;2.07;;;;;;;20.37;100.00;95975.22;5116538;28;20610;-60
2021/12/31 10:17:02;;;;;;;1.87;1.70;;;;;;;20.48;100.00;95970.03;5116706;28;20667;-60
2021/12/31 10:19:27;;;;;;;1.53;1.40;;;;;;;20.11;100.00;95978.56;5134794;28;20191;-60
2021/12/31 10:21:55;;;;;;;4.33;1.37;;;;;;;20.23;100.00;95986.81;5116806;28;20179;-60
2021/12/31 10:24:40;;;;;;;1.57;1.40;;;;;;;20.23;100.00;95980.47;5116607;28;20672;-60
2021/12/31 10:27:08;;;;;;;2.23;1.43;;;;;;;20.13;100.00;95974.09;5116109;28;20195;-60
2021/12/31 10:29:34;;;;;;;3.00;1.73;;;;;;;20.22;100.00;95960.31;5116767;28;20187;-61
2021/12/31 10:31:59;;;;;;;3.10;1.27;;;;;;;20.09;100.00;95965.09;5117152;28;20187;-60
2021/12/31 10:34:36;;;;;;;1.37;1.27;;;;;;;19.81;100.00;95955.00;5116319;28;20199;-62
2021/12/31 10:37:03;;;;;;;1.57;1.37;;;;;;;19.72;100.00;95952.16;5116180;28;20178;-58
2021/12/31 10:39:31;;;;;;;1.40;1.30;;;;;;;19.68;100.00;95950.72;5116232;28;20226;-60
2021/12/31 10:41:59;;;;;;;1.40;1.30;;;;;;;18.92;100.00;95950.84;5117110;28;20191;-59
2021/12/31 10:44:50;;;;;;;1.80;1.70;;;;;;;17.90;100.00;95955.03;5116419;28;20640;-59
2021/12/31 10:47:16;;;;;;;1.27;1.17;;;;;;;17.47;100.00;95941.59;5116858;28;20198;-58
2021/12/31 10:50:00;;;;;;;1.70;1.20;;;;;;;16.94;100.00;95941.34;5116442;28;20271;-57
2021/12/31 10:52:46;;;;;;;2.20;1.30;;;;;;;16.65;100.00;95940.44;5134775;28;20624;-57
2021/12/31 10:57:43;;;;;;;3.07;1.87;;;;;;;16.06;100.00;95921.19;5134615;28;20278;-58
2021/12/31 11:00:10;;;;;;;6.10;5.10;;;;;;;15.80;100.00;95920.16;5115824;28;20195;-59
2021/12/31 11:02:36;;;;;;;2.83;1.90;;;;;;;15.58;100.00;95921.78;5116285;28;20193;-59
2021/12/31 11:05:03;;;;;;;2.60;2.00;;;;;;;15.37;100.00;95916.66;5116097;28;20238;-63
2021/12/31 11:07:29;;;;;;;3.83;2.20;;;;;;;15.28;100.00;95908.16;5116191;28;20190;-63
2021/12/31 11:10:04;;;;;;;1.40;1.23;;;;;;;15.18;100.00;95911.09;5116601;28;20187;-58
2021/12/31 11:12:30;;;;;;;3.83;2.73;;;;;;;15.02;100.00;95902.72;5116565;28;20205;-58
2021/12/31 11:14:56;;;;;;;1.60;1.30;;;;;;;14.90;100.00;95906.84;5116381;28;20319;-58
2021/12/31 11:17:23;;;;;;;1.67;1.10;;;;;;;14.83;100.00;95906.19;5116297;28;20273;-58
2021/12/31 11:19:49;;;;;;;1.33;1.10;;;;;;;14.75;100.00;95905.53;5116073;28;20199;-57
2021/12/31 11:22:17;;;;;;;1.77;1.50;;;;;;;14.68;100.00;95907.63;5116566;28;20186;-58
2021/12/31 11:24:43;;;;;;;1.73;1.00;;;;;;;14.63;100.00;95900.63;5116148;28;20210;-58